sensor_id;sensor_type;location;lat;lon;timestamp;P1;durP1;ratioP1;P2;durP2;ratioP2
7359;SDS011;3720;48.274;7.796;2023-04-25T00:00:50;9.32;;;4.00;;
7359;SDS011;3720;48.274;7.796;2023-04-25T00:03:23;7.32;;;3.70;;
7359;SDS011;3720;48.274;7.796;2023-04-25T00:05:56;6.60;;;3.60;;
7359;SDS011;3720;48.274;7.796;2023-04-25T00:08:28;8.20;;;3.42;;
7359;SDS011;3720;48.274;7.796;2023-04-25T00:11:00;11.63;;;3.90;;
7359;SDS011;3720;48.274;7.796;2023-04-25T00:13:33;8.68;;;3.50;;
7359;SDS011;3720;48.274;7.796;2023-04-25T00:16:05;6.13;;;3.53;;
7359;SDS011;3720;48.274;7.796;2023-04-25T00:18:37;7.53;;;3.13;;
7359;SDS011;3720;48.274;7.796;2023-04-25T00:21:09;9.93;;;3.40;;
7359;SDS011;3720;48.274;7.796;2023-04-25T00:23:41;5.78;;;3.20;;
7359;SDS011;3720;48.274;7.796;2023-04-25T00:26:13;6.75;;;3.30;;
7359;SDS011;3720;48.274;7.796;2023-04-25T00:28:46;5.82;;;3.38;;
7359;SDS011;3720;48.274;7.796;2023-04-25T00:31:18;6.47;;;2.90;;
7359;SDS011;3720;48.274;7.796;2023-04-25T00:33:50;5.15;;;3.03;;
7359;SDS011;3720;48.274;7.796;2023-04-25T00:36:23;3.85;;;3.03;;
7359;SDS011;3720;48.274;7.796;2023-04-25T00:38:55;7.38;;;3.03;;
7359;SDS011;3720;48.274;7.796;2023-04-25T00:41:27;5.50;;;3.40;;
7359;SDS011;3720;48.274;7.796;2023-04-25T00:44:01;7.47;;;3.05;;
7359;SDS011;3720;48.274;7.796;2023-04-25T00:46:35;6.80;;;3.00;;
7359;SDS011;3720;48.274;7.796;2023-04-25T00:49:07;7.07;;;3.03;;
7359;SDS011;3720;48.274;7.796;2023-04-25T00:51:45;4.47;;;2.88;;
7359;SDS011;3720;48.274;7.796;2023-04-25T00:54:17;5.32;;;2.50;;
7359;SDS011;3720;48.274;7.796;2023-04-25T00:56:49;3.90;;;2.55;;
7359;SDS011;3720;48.274;7.796;2023-04-25T00:59:23;4.72;;;2.80;;
7359;SDS011;3720;48.274;7.796;2023-04-25T01:01:56;5.15;;;3.17;;
7359;SDS011;3720;48.274;7.796;2023-04-25T01:04:28;4.38;;;2.50;;
7359;SDS011;3720;48.274;7.796;2023-04-25T01:07:00;5.35;;;3.00;;
7359;SDS011;3720;48.274;7.796;2023-04-25T01:09:32;5.20;;;2.92;;
7359;SDS011;3720;48.274;7.796;2023-04-25T01:12:05;6.15;;;2.80;;
7359;SDS011;3720;48.274;7.796;2023-04-25T01:14:39;4.70;;;2.70;;
7359;SDS011;3720;48.274;7.796;2023-04-25T01:17:11;4.38;;;2.78;;
7359;SDS011;3720;48.274;7.796;2023-04-25T01:19:44;5.93;;;2.80;;
7359;SDS011;3720;48.274;7.796;2023-04-25T01:22:20;5.68;;;2.78;;
7359;SDS011;3720;48.274;7.796;2023-04-25T01:24:52;5.05;;;2.90;;
7359;SDS011;3720;48.274;7.796;2023-04-25T01:27:25;5.90;;;2.85;;
7359;SDS011;3720;48.274;7.796;2023-04-25T01:29:56;4.03;;;2.63;;
7359;SDS011;3720;48.274;7.796;2023-04-25T01:32:29;6.15;;;3.10;;
7359;SDS011;3720;48.274;7.796;2023-04-25T01:35:08;5.10;;;2.80;;
7359;SDS011;3720;48.274;7.796;2023-04-25T01:37:44;5.00;;;2.72;;
7359;SDS011;3720;48.274;7.796;2023-04-25T01:40:16;8.23;;;2.95;;
7359;SDS011;3720;48.274;7.796;2023-04-25T01:42:50;7.75;;;3.33;;
7359;SDS011;3720;48.274;7.796;2023-04-25T01:45:22;5.07;;;3.15;;
7359;SDS011;3720;48.274;7.796;2023-04-25T01:47:55;6.53;;;3.40;;
7359;SDS011;3720;48.274;7.796;2023-04-25T01:50:29;6.90;;;3.70;;
7359;SDS011;3720;48.274;7.796;2023-04-25T01:53:02;8.13;;;3.67;;
7359;SDS011;3720;48.274;7.796;2023-04-25T01:55:35;6.95;;;3.65;;
7359;SDS011;3720;48.274;7.796;2023-04-25T01:58:07;5.63;;;3.53;;
7359;SDS011;3720;48.274;7.796;2023-04-25T02:00:42;8.45;;;4.03;;
7359;SDS011;3720;48.274;7.796;2023-04-25T02:03:14;7.15;;;4.10;;
7359;SDS011;3720;48.274;7.796;2023-04-25T02:05:46;6.38;;;3.47;;
7359;SDS011;3720;48.274;7.796;2023-04-25T02:08:19;7.88;;;3.72;;
7359;SDS011;3720;48.274;7.796;2023-04-25T02:10:51;6.82;;;3.67;;
7359;SDS011;3720;48.274;7.796;2023-04-25T02:13:23;6.13;;;3.65;;
7359;SDS011;3720;48.274;7.796;2023-04-25T02:15:55;8.93;;;3.80;;
7359;SDS011;3720;48.274;7.796;2023-04-25T02:18:27;7.43;;;3.78;;
7359;SDS011;3720;48.274;7.796;2023-04-25T02:20:59;7.80;;;3.80;;
7359;SDS011;3720;48.274;7.796;2023-04-25T02:23:34;8.68;;;3.50;;
7359;SDS011;3720;48.274;7.796;2023-04-25T02:26:06;7.07;;;3.67;;
7359;SDS011;3720;48.274;7.796;2023-04-25T02:28:38;6.80;;;3.80;;
7359;SDS011;3720;48.274;7.796;2023-04-25T02:31:10;7.30;;;3.88;;
7359;SDS011;3720;48.274;7.796;2023-04-25T02:33:42;8.98;;;4.00;;
7359;SDS011;3720;48.274;7.796;2023-04-25T02:36:14;9.77;;;4.03;;
7359;SDS011;3720;48.274;7.796;2023-04-25T02:38:48;9.50;;;4.00;;
7359;SDS011;3720;48.274;7.796;2023-04-25T02:41:20;7.43;;;3.67;;
7359;SDS011;3720;48.274;7.796;2023-04-25T02:43:52;8.50;;;4.07;;
7359;SDS011;3720;48.274;7.796;2023-04-25T02:46:23;7.25;;;4.13;;
7359;SDS011;3720;48.274;7.796;2023-04-25T02:48:55;8.30;;;3.92;;
7359;SDS011;3720;48.274;7.796;2023-04-25T02:51:27;7.03;;;3.85;;
7359;SDS011;3720;48.274;7.796;2023-04-25T02:54:01;8.77;;;3.95;;
7359;SDS011;3720;48.274;7.796;2023-04-25T02:56:34;8.27;;;4.50;;
7359;SDS011;3720;48.274;7.796;2023-04-25T02:59:06;6.45;;;3.95;;
7359;SDS011;3720;48.274;7.796;2023-04-25T03:01:37;8.20;;;4.53;;
7359;SDS011;3720;48.274;7.796;2023-04-25T03:04:10;6.88;;;4.15;;
7359;SDS011;3720;48.274;7.796;2023-04-25T03:06:41;7.35;;;4.38;;
7359;SDS011;3720;48.274;7.796;2023-04-25T03:09:15;10.57;;;4.43;;
7359;SDS011;3720;48.274;7.796;2023-04-25T03:11:47;7.10;;;4.13;;
7359;SDS011;3720;48.274;7.796;2023-04-25T03:14:19;8.32;;;4.45;;
7359;SDS011;3720;48.274;7.796;2023-04-25T03:16:51;9.65;;;4.55;;
7359;SDS011;3720;48.274;7.796;2023-04-25T03:19:23;8.32;;;4.95;;
7359;SDS011;3720;48.274;7.796;2023-04-25T03:21:55;8.48;;;4.47;;
7359;SDS011;3720;48.274;7.796;2023-04-25T03:24:28;9.30;;;4.57;;
7359;SDS011;3720;48.274;7.796;2023-04-25T03:27:00;11.32;;;5.07;;
7359;SDS011;3720;48.274;7.796;2023-04-25T03:29:32;10.07;;;4.60;;
7359;SDS011;3720;48.274;7.796;2023-04-25T03:32:05;10.38;;;5.00;;
7359;SDS011;3720;48.274;7.796;2023-04-25T03:34:37;8.57;;;5.15;;
7359;SDS011;3720;48.274;7.796;2023-04-25T03:37:10;10.52;;;5.10;;
7359;SDS011;3720;48.274;7.796;2023-04-25T03:39:43;8.45;;;4.80;;
7359;SDS011;3720;48.274;7.796;2023-04-25T03:42:15;9.63;;;5.47;;
7359;SDS011;3720;48.274;7.796;2023-04-25T03:44:47;9.80;;;5.40;;
7359;SDS011;3720;48.274;7.796;2023-04-25T03:47:18;10.25;;;5.45;;
7359;SDS011;3720;48.274;7.796;2023-04-25T03:49:50;9.60;;;5.88;;
7359;SDS011;3720;48.274;7.796;2023-04-25T03:52:22;8.68;;;5.75;;
7359;SDS011;3720;48.274;7.796;2023-04-25T03:54:56;7.72;;;5.15;;
7359;SDS011;3720;48.274;7.796;2023-04-25T03:57:27;9.07;;;5.32;;
7359;SDS011;3720;48.274;7.796;2023-04-25T03:59:59;9.20;;;5.68;;
7359;SDS011;3720;48.274;7.796;2023-04-25T04:02:31;7.88;;;5.38;;
7359;SDS011;3720;48.274;7.796;2023-04-25T04:05:04;9.50;;;4.90;;
7359;SDS011;3720;48.274;7.796;2023-04-25T04:07:37;9.32;;;5.47;;
7359;SDS011;3720;48.274;7.796;2023-04-25T04:10:11;7.30;;;5.43;;
7359;SDS011;3720;48.274;7.796;2023-04-25T04:12:43;8.10;;;5.20;;
7359;SDS011;3720;48.274;7.796;2023-04-25T04:15:15;10.38;;;6.03;;
7359;SDS011;3720;48.274;7.796;2023-04-25T04:17:47;9.20;;;5.60;;
7359;SDS011;3720;48.274;7.796;2023-04-25T04:20:19;6.95;;;4.97;;
7359;SDS011;3720;48.274;7.796;2023-04-25T04:22:51;8.98;;;5.47;;
7359;SDS011;3720;48.274;7.796;2023-04-25T04:25:25;10.38;;;5.50;;
7359;SDS011;3720;48.274;7.796;2023-04-25T04:27:57;9.73;;;5.28;;
7359;SDS011;3720;48.274;7.796;2023-04-25T04:30:30;8.20;;;4.82;;
7359;SDS011;3720;48.274;7.796;2023-04-25T04:33:06;11.68;;;5.03;;
7359;SDS011;3720;48.274;7.796;2023-04-25T04:35:38;8.32;;;4.68;;
7359;SDS011;3720;48.274;7.796;2023-04-25T04:38:11;7.15;;;4.95;;
7359;SDS011;3720;48.274;7.796;2023-04-25T04:40:46;8.60;;;4.78;;
7359;SDS011;3720;48.274;7.796;2023-04-25T04:43:18;6.47;;;4.70;;
7359;SDS011;3720;48.274;7.796;2023-04-25T04:45:50;14.02;;;5.38;;
7359;SDS011;3720;48.274;7.796;2023-04-25T04:48:22;8.30;;;5.30;;
7359;SDS011;3720;48.274;7.796;2023-04-25T04:50:54;8.93;;;5.30;;
7359;SDS011;3720;48.274;7.796;2023-04-25T04:53:26;10.35;;;5.70;;
7359;SDS011;3720;48.274;7.796;2023-04-25T04:56:00;10.30;;;5.82;;
7359;SDS011;3720;48.274;7.796;2023-04-25T04:58:31;10.40;;;5.95;;
7359;SDS011;3720;48.274;7.796;2023-04-25T05:01:04;11.02;;;6.00;;
7359;SDS011;3720;48.274;7.796;2023-04-25T05:03:37;9.40;;;5.85;;
7359;SDS011;3720;48.274;7.796;2023-04-25T05:06:09;11.68;;;5.90;;
7359;SDS011;3720;48.274;7.796;2023-04-25T05:08:41;10.20;;;5.75;;
7359;SDS011;3720;48.274;7.796;2023-04-25T05:11:15;12.13;;;5.53;;
7359;SDS011;3720;48.274;7.796;2023-04-25T05:13:46;9.07;;;5.70;;
7359;SDS011;3720;48.274;7.796;2023-04-25T05:16:18;8.20;;;5.70;;
7359;SDS011;3720;48.274;7.796;2023-04-25T05:18:51;10.20;;;6.05;;
7359;SDS011;3720;48.274;7.796;2023-04-25T05:21:23;8.35;;;5.75;;
7359;SDS011;3720;48.274;7.796;2023-04-25T05:23:55;7.95;;;5.60;;
7359;SDS011;3720;48.274;7.796;2023-04-25T05:26:28;9.25;;;6.38;;
7359;SDS011;3720;48.274;7.796;2023-04-25T05:29:01;9.45;;;6.30;;
7359;SDS011;3720;48.274;7.796;2023-04-25T05:31:32;10.85;;;6.70;;
7359;SDS011;3720;48.274;7.796;2023-04-25T05:34:04;13.90;;;8.30;;
7359;SDS011;3720;48.274;7.796;2023-04-25T05:36:36;16.33;;;9.48;;
7359;SDS011;3720;48.274;7.796;2023-04-25T05:39:08;13.35;;;7.40;;
7359;SDS011;3720;48.274;7.796;2023-04-25T05:41:42;14.60;;;6.90;;
7359;SDS011;3720;48.274;7.796;2023-04-25T05:44:14;10.73;;;6.10;;
7359;SDS011;3720;48.274;7.796;2023-04-25T05:46:47;13.85;;;5.97;;
7359;SDS011;3720;48.274;7.796;2023-04-25T05:49:18;9.50;;;5.97;;
7359;SDS011;3720;48.274;7.796;2023-04-25T05:51:50;9.45;;;6.18;;
7359;SDS011;3720;48.274;7.796;2023-04-25T05:54:22;9.45;;;5.60;;
7359;SDS011;3720;48.274;7.796;2023-04-25T05:56:57;9.05;;;4.80;;
7359;SDS011;3720;48.274;7.796;2023-04-25T05:59:29;10.00;;;4.78;;
7359;SDS011;3720;48.274;7.796;2023-04-25T06:02:01;9.48;;;4.57;;
7359;SDS011;3720;48.274;7.796;2023-04-25T06:04:33;7.45;;;4.13;;
7359;SDS011;3720;48.274;7.796;2023-04-25T06:07:05;5.45;;;3.85;;
7359;SDS011;3720;48.274;7.796;2023-04-25T06:09:37;7.28;;;3.65;;
7359;SDS011;3720;48.274;7.796;2023-04-25T06:12:12;6.47;;;3.40;;
7359;SDS011;3720;48.274;7.796;2023-04-25T06:14:44;4.63;;;3.10;;
7359;SDS011;3720;48.274;7.796;2023-04-25T06:17:16;6.18;;;3.08;;
7359;SDS011;3720;48.274;7.796;2023-04-25T06:19:47;5.72;;;2.72;;
7359;SDS011;3720;48.274;7.796;2023-04-25T06:22:19;3.90;;;2.65;;
7359;SDS011;3720;48.274;7.796;2023-04-25T06:24:51;3.05;;;2.30;;
7359;SDS011;3720;48.274;7.796;2023-04-25T06:27:24;3.22;;;2.30;;
7359;SDS011;3720;48.274;7.796;2023-04-25T06:29:56;4.78;;;2.40;;
7359;SDS011;3720;48.274;7.796;2023-04-25T06:32:28;4.38;;;2.17;;
7359;SDS011;3720;48.274;7.796;2023-04-25T06:35:00;2.30;;;1.80;;
7359;SDS011;3720;48.274;7.796;2023-04-25T06:37:32;2.92;;;1.70;;
7359;SDS011;3720;48.274;7.796;2023-04-25T06:40:04;6.65;;;2.50;;
7359;SDS011;3720;48.274;7.796;2023-04-25T06:42:39;5.30;;;2.80;;
7359;SDS011;3720;48.274;7.796;2023-04-25T06:45:10;3.10;;;2.60;;
7359;SDS011;3720;48.274;7.796;2023-04-25T06:47:42;4.55;;;2.55;;
7359;SDS011;3720;48.274;7.796;2023-04-25T06:50:14;4.22;;;2.65;;
7359;SDS011;3720;48.274;7.796;2023-04-25T06:52:46;4.18;;;2.30;;
7359;SDS011;3720;48.274;7.796;2023-04-25T06:55:18;2.95;;;1.95;;
7359;SDS011;3720;48.274;7.796;2023-04-25T06:57:51;3.13;;;2.10;;
7359;SDS011;3720;48.274;7.796;2023-04-25T07:00:23;2.58;;;1.90;;
7359;SDS011;3720;48.274;7.796;2023-04-25T07:02:56;2.95;;;1.75;;
7359;SDS011;3720;48.274;7.796;2023-04-25T07:05:27;4.63;;;2.10;;
7359;SDS011;3720;48.274;7.796;2023-04-25T07:07:59;3.83;;;1.83;;
7359;SDS011;3720;48.274;7.796;2023-04-25T07:10:31;2.65;;;1.58;;
7359;SDS011;3720;48.274;7.796;2023-04-25T07:13:05;2.75;;;1.40;;
7359;SDS011;3720;48.274;7.796;2023-04-25T07:15:36;2.47;;;1.73;;
7359;SDS011;3720;48.274;7.796;2023-04-25T07:18:09;1.98;;;1.77;;
7359;SDS011;3720;48.274;7.796;2023-04-25T07:20:41;4.95;;;2.15;;
7359;SDS011;3720;48.274;7.796;2023-04-25T07:23:13;2.75;;;1.90;;
7359;SDS011;3720;48.274;7.796;2023-04-25T07:25:45;2.85;;;2.00;;
7359;SDS011;3720;48.274;7.796;2023-04-25T07:28:18;2.70;;;2.17;;
7359;SDS011;3720;48.274;7.796;2023-04-25T07:30:50;4.30;;;2.20;;
7359;SDS011;3720;48.274;7.796;2023-04-25T07:33:22;2.10;;;1.90;;
7359;SDS011;3720;48.274;7.796;2023-04-25T07:35:54;4.72;;;1.95;;
7359;SDS011;3720;48.274;7.796;2023-04-25T07:38:26;4.20;;;2.20;;
7359;SDS011;3720;48.274;7.796;2023-04-25T07:40:58;2.90;;;2.10;;
7359;SDS011;3720;48.274;7.796;2023-04-25T07:43:32;2.58;;;2.00;;
7359;SDS011;3720;48.274;7.796;2023-04-25T07:46:04;2.08;;;1.88;;
7359;SDS011;3720;48.274;7.796;2023-04-25T07:48:36;3.60;;;2.03;;
7359;SDS011;3720;48.274;7.796;2023-04-25T07:51:08;2.22;;;1.90;;
7359;SDS011;3720;48.274;7.796;2023-04-25T07:53:40;4.07;;;2.50;;
7359;SDS011;3720;48.274;7.796;2023-04-25T07:56:12;3.90;;;2.17;;
7359;SDS011;3720;48.274;7.796;2023-04-25T07:58:45;2.92;;;1.95;;
7359;SDS011;3720;48.274;7.796;2023-04-25T08:01:17;3.50;;;2.20;;
7359;SDS011;3720;48.274;7.796;2023-04-25T08:03:51;3.92;;;2.10;;
7359;SDS011;3720;48.274;7.796;2023-04-25T08:06:23;3.55;;;1.90;;
7359;SDS011;3720;48.274;7.796;2023-04-25T08:08:55;3.10;;;1.90;;
7359;SDS011;3720;48.274;7.796;2023-04-25T08:11:27;2.75;;;1.92;;
7359;SDS011;3720;48.274;7.796;2023-04-25T08:14:00;3.65;;;2.35;;
7359;SDS011;3720;48.274;7.796;2023-04-25T08:16:32;3.45;;;1.83;;
7359;SDS011;3720;48.274;7.796;2023-04-25T08:19:05;2.38;;;2.00;;
7359;SDS011;3720;48.274;7.796;2023-04-25T08:21:36;3.28;;;2.10;;
7359;SDS011;3720;48.274;7.796;2023-04-25T08:24:09;2.50;;;1.55;;
7359;SDS011;3720;48.274;7.796;2023-04-25T08:26:41;2.55;;;1.73;;
7359;SDS011;3720;48.274;7.796;2023-04-25T08:29:14;3.05;;;1.58;;
7359;SDS011;3720;48.274;7.796;2023-04-25T08:31:46;3.92;;;1.20;;
7359;SDS011;3720;48.274;7.796;2023-04-25T08:34:19;1.40;;;1.23;;
7359;SDS011;3720;48.274;7.796;2023-04-25T08:36:51;2.05;;;1.50;;
7359;SDS011;3720;48.274;7.796;2023-04-25T08:39:23;2.97;;;1.38;;
7359;SDS011;3720;48.274;7.796;2023-04-25T08:41:56;2.00;;;1.40;;
7359;SDS011;3720;48.274;7.796;2023-04-25T08:44:29;2.75;;;1.80;;
7359;SDS011;3720;48.274;7.796;2023-04-25T08:47:03;3.47;;;2.13;;
7359;SDS011;3720;48.274;7.796;2023-04-25T08:49:36;5.00;;;3.20;;
7359;SDS011;3720;48.274;7.796;2023-04-25T08:52:10;5.63;;;4.18;;
7359;SDS011;3720;48.274;7.796;2023-04-25T08:54:43;4.22;;;3.15;;
7359;SDS011;3720;48.274;7.796;2023-04-25T08:57:18;6.75;;;3.92;;
7359;SDS011;3720;48.274;7.796;2023-04-25T08:59:54;3.83;;;2.45;;
7359;SDS011;3720;48.274;7.796;2023-04-25T09:02:27;2.67;;;2.08;;
7359;SDS011;3720;48.274;7.796;2023-04-25T09:05:01;2.35;;;1.45;;
7359;SDS011;3720;48.274;7.796;2023-04-25T09:07:34;1.40;;;1.30;;
7359;SDS011;3720;48.274;7.796;2023-04-25T09:10:07;1.77;;;1.30;;
7359;SDS011;3720;48.274;7.796;2023-04-25T09:12:39;2.95;;;1.70;;
7359;SDS011;3720;48.274;7.796;2023-04-25T09:15:13;2.63;;;1.80;;
7359;SDS011;3720;48.274;7.796;2023-04-25T09:17:45;3.10;;;1.50;;
7359;SDS011;3720;48.274;7.796;2023-04-25T09:20:26;1.80;;;1.40;;
7359;SDS011;3720;48.274;7.796;2023-04-25T09:23:01;1.83;;;1.40;;
7359;SDS011;3720;48.274;7.796;2023-04-25T09:25:35;2.17;;;1.52;;
7359;SDS011;3720;48.274;7.796;2023-04-25T09:28:09;2.70;;;1.95;;
7359;SDS011;3720;48.274;7.796;2023-04-25T09:30:43;3.03;;;2.10;;
7359;SDS011;3720;48.274;7.796;2023-04-25T09:33:17;2.90;;;2.07;;
7359;SDS011;3720;48.274;7.796;2023-04-25T09:35:49;2.35;;;1.70;;
7359;SDS011;3720;48.274;7.796;2023-04-25T09:38:25;7.10;;;5.20;;
7359;SDS011;3720;48.274;7.796;2023-04-25T09:40:57;5.30;;;4.05;;
7359;SDS011;3720;48.274;7.796;2023-04-25T09:43:30;3.60;;;2.88;;
7359;SDS011;3720;48.274;7.796;2023-04-25T09:46:04;3.30;;;2.55;;
7359;SDS011;3720;48.274;7.796;2023-04-25T09:48:41;3.30;;;2.47;;
7359;SDS011;3720;48.274;7.796;2023-04-25T09:51:19;2.67;;;1.77;;
7359;SDS011;3720;48.274;7.796;2023-04-25T09:53:51;4.10;;;2.63;;
7359;SDS011;3720;48.274;7.796;2023-04-25T09:56:23;2.13;;;1.50;;
7359;SDS011;3720;48.274;7.796;2023-04-25T09:59:02;2.55;;;1.65;;
7359;SDS011;3720;48.274;7.796;2023-04-25T10:01:37;2.42;;;1.45;;
7359;SDS011;3720;48.274;7.796;2023-04-25T10:04:11;4.40;;;1.60;;
7359;SDS011;3720;48.274;7.796;2023-04-25T10:06:45;2.03;;;1.40;;
7359;SDS011;3720;48.274;7.796;2023-04-25T10:09:19;2.75;;;1.80;;
7359;SDS011;3720;48.274;7.796;2023-04-25T10:11:53;3.20;;;1.70;;
7359;SDS011;3720;48.274;7.796;2023-04-25T10:14:26;1.90;;;1.70;;
7359;SDS011;3720;48.274;7.796;2023-04-25T10:17:00;1.85;;;1.75;;
7359;SDS011;3720;48.274;7.796;2023-04-25T10:19:32;2.15;;;1.80;;
7359;SDS011;3720;48.274;7.796;2023-04-25T10:22:07;2.45;;;1.75;;
7359;SDS011;3720;48.274;7.796;2023-04-25T10:24:48;2.63;;;1.70;;
7359;SDS011;3720;48.274;7.796;2023-04-25T10:27:22;2.67;;;1.75;;
7359;SDS011;3720;48.274;7.796;2023-04-25T10:30:00;3.53;;;1.95;;
7359;SDS011;3720;48.274;7.796;2023-04-25T10:32:35;2.97;;;2.00;;
7359;SDS011;3720;48.274;7.796;2023-04-25T10:35:14;3.05;;;2.00;;
7359;SDS011;3720;48.274;7.796;2023-04-25T10:37:56;3.05;;;2.00;;
7359;SDS011;3720;48.274;7.796;2023-04-25T10:40:29;2.45;;;1.90;;
7359;SDS011;3720;48.274;7.796;2023-04-25T10:46:17;3.35;;;2.10;;
7359;SDS011;3720;48.274;7.796;2023-04-25T10:48:52;3.15;;;2.17;;
7359;SDS011;3720;48.274;7.796;2023-04-25T10:51:25;3.13;;;2.17;;
7359;SDS011;3720;48.274;7.796;2023-04-25T10:53:59;2.10;;;1.90;;
7359;SDS011;3720;48.274;7.796;2023-04-25T10:56:32;2.67;;;2.08;;
7359;SDS011;3720;48.274;7.796;2023-04-25T10:59:08;2.22;;;1.90;;
7359;SDS011;3720;48.274;7.796;2023-04-25T11:01:41;3.55;;;2.00;;
7359;SDS011;3720;48.274;7.796;2023-04-25T11:04:23;3.00;;;1.95;;
7359;SDS011;3720;48.274;7.796;2023-04-25T11:07:07;3.05;;;2.10;;
7359;SDS011;3720;48.274;7.796;2023-04-25T11:09:44;2.65;;;1.90;;
7359;SDS011;3720;48.274;7.796;2023-04-25T11:12:17;3.65;;;2.10;;
7359;SDS011;3720;48.274;7.796;2023-04-25T11:14:49;2.20;;;2.00;;
7359;SDS011;3720;48.274;7.796;2023-04-25T11:17:21;2.42;;;1.88;;
7359;SDS011;3720;48.274;7.796;2023-04-25T11:19:58;3.60;;;2.17;;
7359;SDS011;3720;48.274;7.796;2023-04-25T11:22:31;2.33;;;1.90;;
7359;SDS011;3720;48.274;7.796;2023-04-25T11:25:06;2.35;;;2.10;;
7359;SDS011;3720;48.274;7.796;2023-04-25T11:27:48;3.42;;;2.35;;
7359;SDS011;3720;48.274;7.796;2023-04-25T11:30:21;2.40;;;2.20;;
7359;SDS011;3720;48.274;7.796;2023-04-25T11:32:54;2.92;;;2.25;;
7359;SDS011;3720;48.274;7.796;2023-04-25T11:35:28;2.72;;;2.33;;
7359;SDS011;3720;48.274;7.796;2023-04-25T11:38:00;3.08;;;2.10;;
7359;SDS011;3720;48.274;7.796;2023-04-25T11:40:32;2.45;;;2.20;;
7359;SDS011;3720;48.274;7.796;2023-04-25T11:43:07;2.28;;;2.00;;
7359;SDS011;3720;48.274;7.796;2023-04-25T11:45:41;1.80;;;1.30;;
7359;SDS011;3720;48.274;7.796;2023-04-25T11:48:16;1.40;;;0.63;;
7359;SDS011;3720;48.274;7.796;2023-04-25T11:50:50;3.10;;;0.90;;
7359;SDS011;3720;48.274;7.796;2023-04-25T11:53:22;4.47;;;1.30;;
7359;SDS011;3720;48.274;7.796;2023-04-25T11:55:54;5.50;;;1.65;;
7359;SDS011;3720;48.274;7.796;2023-04-25T11:58:27;2.00;;;1.23;;
7359;SDS011;3720;48.274;7.796;2023-04-25T12:00:59;2.30;;;1.30;;
7359;SDS011;3720;48.274;7.796;2023-04-25T12:03:33;3.95;;;1.40;;
7359;SDS011;3720;48.274;7.796;2023-04-25T12:06:06;1.63;;;1.10;;
7359;SDS011;3720;48.274;7.796;2023-04-25T12:08:38;1.58;;;1.00;;
7359;SDS011;3720;48.274;7.796;2023-04-25T12:11:29;1.90;;;1.23;;
7359;SDS011;3720;48.274;7.796;2023-04-25T12:14:02;4.10;;;2.00;;
7359;SDS011;3720;48.274;7.796;2023-04-25T12:16:42;3.80;;;1.42;;
7359;SDS011;3720;48.274;7.796;2023-04-25T12:19:14;3.70;;;1.30;;
7359;SDS011;3720;48.274;7.796;2023-04-25T12:21:48;1.65;;;1.10;;
7359;SDS011;3720;48.274;7.796;2023-04-25T12:24:21;4.70;;;1.30;;
7359;SDS011;3720;48.274;7.796;2023-04-25T12:26:58;3.55;;;1.40;;
7359;SDS011;3720;48.274;7.796;2023-04-25T12:32:04;1.77;;;1.60;;
7359;SDS011;3720;48.274;7.796;2023-04-25T12:34:36;7.18;;;5.35;;
7359;SDS011;3720;48.274;7.796;2023-04-25T12:37:10;3.80;;;3.17;;
7359;SDS011;3720;48.274;7.796;2023-04-25T12:39:43;3.05;;;2.05;;
7359;SDS011;3720;48.274;7.796;2023-04-25T12:42:15;4.93;;;3.20;;
7359;SDS011;3720;48.274;7.796;2023-04-25T12:44:47;1.63;;;1.35;;
7359;SDS011;3720;48.274;7.796;2023-04-25T12:47:19;2.53;;;1.30;;
7359;SDS011;3720;48.274;7.796;2023-04-25T12:49:51;1.35;;;1.20;;
7359;SDS011;3720;48.274;7.796;2023-04-25T12:52:24;2.30;;;1.50;;
7359;SDS011;3720;48.274;7.796;2023-04-25T12:54:56;1.75;;;1.40;;
7359;SDS011;3720;48.274;7.796;2023-04-25T12:57:28;2.85;;;2.20;;
7359;SDS011;3720;48.274;7.796;2023-04-25T13:00:00;2.67;;;2.20;;
7359;SDS011;3720;48.274;7.796;2023-04-25T13:02:34;3.75;;;2.40;;
7359;SDS011;3720;48.274;7.796;2023-04-25T13:05:07;2.13;;;1.90;;
7359;SDS011;3720;48.274;7.796;2023-04-25T13:07:40;1.70;;;1.60;;
7359;SDS011;3720;48.274;7.796;2023-04-25T13:10:12;2.75;;;1.88;;
7359;SDS011;3720;48.274;7.796;2023-04-25T13:12:44;1.83;;;1.60;;
7359;SDS011;3720;48.274;7.796;2023-04-25T13:15:17;2.58;;;1.90;;
7359;SDS011;3720;48.274;7.796;2023-04-25T13:17:49;3.65;;;1.90;;
7359;SDS011;3720;48.274;7.796;2023-04-25T13:20:21;4.22;;;2.45;;
7359;SDS011;3720;48.274;7.796;2023-04-25T13:22:54;3.78;;;2.22;;
7359;SDS011;3720;48.274;7.796;2023-04-25T13:25:26;1.92;;;1.73;;
7359;SDS011;3720;48.274;7.796;2023-04-25T13:27:58;2.80;;;2.20;;
7359;SDS011;3720;48.274;7.796;2023-04-25T13:30:30;2.08;;;1.75;;
7359;SDS011;3720;48.274;7.796;2023-04-25T13:33:02;2.78;;;1.85;;
7359;SDS011;3720;48.274;7.796;2023-04-25T13:35:34;2.10;;;1.90;;
7359;SDS011;3720;48.274;7.796;2023-04-25T13:38:09;1.90;;;1.55;;
7359;SDS011;3720;48.274;7.796;2023-04-25T13:40:41;2.88;;;1.70;;
7359;SDS011;3720;48.274;7.796;2023-04-25T13:43:12;3.10;;;1.50;;
7359;SDS011;3720;48.274;7.796;2023-04-25T13:45:44;2.72;;;1.90;;
7359;SDS011;3720;48.274;7.796;2023-04-25T13:48:17;2.22;;;1.88;;
7359;SDS011;3720;48.274;7.796;2023-04-25T13:50:49;2.90;;;1.92;;
7359;SDS011;3720;48.274;7.796;2023-04-25T13:53:23;5.35;;;2.20;;
7359;SDS011;3720;48.274;7.796;2023-04-25T13:55:55;2.67;;;2.47;;
7359;SDS011;3720;48.274;7.796;2023-04-25T13:58:27;4.15;;;2.33;;
7359;SDS011;3720;48.274;7.796;2023-04-25T14:00:59;3.55;;;2.35;;
7359;SDS011;3720;48.274;7.796;2023-04-25T14:03:31;3.05;;;2.65;;
7359;SDS011;3720;48.274;7.796;2023-04-25T14:06:03;3.00;;;2.20;;
7359;SDS011;3720;48.274;7.796;2023-04-25T14:08:37;3.30;;;2.60;;
7359;SDS011;3720;48.274;7.796;2023-04-25T14:11:10;6.10;;;2.80;;
7359;SDS011;3720;48.274;7.796;2023-04-25T14:13:41;3.97;;;3.00;;
7359;SDS011;3720;48.274;7.796;2023-04-25T14:16:13;3.15;;;2.85;;
7359;SDS011;3720;48.274;7.796;2023-04-25T14:18:45;3.00;;;2.60;;
7359;SDS011;3720;48.274;7.796;2023-04-25T14:21:17;4.00;;;2.90;;
7359;SDS011;3720;48.274;7.796;2023-04-25T14:23:51;5.25;;;3.00;;
7359;SDS011;3720;48.274;7.796;2023-04-25T14:26:24;8.93;;;6.05;;
7359;SDS011;3720;48.274;7.796;2023-04-25T14:28:55;4.38;;;3.67;;
7359;SDS011;3720;48.274;7.796;2023-04-25T14:31:27;3.33;;;2.60;;
7359;SDS011;3720;48.274;7.796;2023-04-25T14:33:59;5.65;;;3.35;;
7359;SDS011;3720;48.274;7.796;2023-04-25T14:36:32;3.45;;;2.42;;
7359;SDS011;3720;48.274;7.796;2023-04-25T14:39:06;4.55;;;3.42;;
7359;SDS011;3720;48.274;7.796;2023-04-25T14:41:38;4.85;;;3.20;;
7359;SDS011;3720;48.274;7.796;2023-04-25T14:44:10;3.65;;;3.05;;
7359;SDS011;3720;48.274;7.796;2023-04-25T14:46:42;3.67;;;2.50;;
7359;SDS011;3720;48.274;7.796;2023-04-25T14:49:18;3.72;;;3.00;;
7359;SDS011;3720;48.274;7.796;2023-04-25T14:51:50;4.65;;;2.40;;
7359;SDS011;3720;48.274;7.796;2023-04-25T14:54:24;3.05;;;2.75;;
7359;SDS011;3720;48.274;7.796;2023-04-25T14:56:56;3.00;;;2.30;;
7359;SDS011;3720;48.274;7.796;2023-04-25T14:59:28;3.90;;;3.50;;
7359;SDS011;3720;48.274;7.796;2023-04-25T15:02:00;3.58;;;2.83;;
7359;SDS011;3720;48.274;7.796;2023-04-25T15:04:32;4.13;;;3.70;;
7359;SDS011;3720;48.274;7.796;2023-04-25T15:07:04;3.95;;;3.08;;
7359;SDS011;3720;48.274;7.796;2023-04-25T15:09:37;3.17;;;2.63;;
7359;SDS011;3720;48.274;7.796;2023-04-25T15:12:09;5.20;;;4.70;;
7359;SDS011;3720;48.274;7.796;2023-04-25T15:14:41;5.57;;;4.35;;
7359;SDS011;3720;48.274;7.796;2023-04-25T15:17:13;4.90;;;3.58;;
7359;SDS011;3720;48.274;7.796;2023-04-25T15:19:46;3.40;;;2.60;;
7359;SDS011;3720;48.274;7.796;2023-04-25T15:22:17;5.00;;;4.50;;
7359;SDS011;3720;48.274;7.796;2023-04-25T15:24:51;6.35;;;5.70;;
7359;SDS011;3720;48.274;7.796;2023-04-25T15:27:24;4.18;;;3.42;;
7359;SDS011;3720;48.274;7.796;2023-04-25T15:29:57;3.60;;;3.25;;
7359;SDS011;3720;48.274;7.796;2023-04-25T15:32:29;3.35;;;2.80;;
7359;SDS011;3720;48.274;7.796;2023-04-25T15:35:02;2.83;;;2.58;;
7359;SDS011;3720;48.274;7.796;2023-04-25T15:37:36;4.97;;;2.42;;
7359;SDS011;3720;48.274;7.796;2023-04-25T15:40:11;3.20;;;2.58;;
7359;SDS011;3720;48.274;7.796;2023-04-25T15:42:46;2.75;;;2.42;;
7359;SDS011;3720;48.274;7.796;2023-04-25T15:45:21;3.35;;;2.70;;
7359;SDS011;3720;48.274;7.796;2023-04-25T15:47:55;2.85;;;2.58;;
7359;SDS011;3720;48.274;7.796;2023-04-25T15:50:27;3.80;;;3.28;;
7359;SDS011;3720;48.274;7.796;2023-04-25T15:52:59;2.78;;;2.42;;
7359;SDS011;3720;48.274;7.796;2023-04-25T15:55:33;3.47;;;2.53;;